Time;durP1;ratioP1;P1;durP2;ratioP2;P2;SDS_P1;SDS_P2;PMS_P1;PMS_P2;Temp;Humidity;BMP_temperature;BMP_pressure;BME280_temperature;BME280_humidity;BME280_pressure;Samples;Min_cycle;Max_cycle;Signal;HPM_P1;HPM_P2
2022/11/10 00:01:47;;;;;;;92.70;33.38;;;;;;;13.99;59.94;100002.19;4436210;32;20462;-85
2022/11/10 00:04:12;;;;;;;97.47;32.75;;;;;;;13.91;59.95;100002.47;4410601;32;30482;-85
2022/11/10 00:06:39;;;;;;;88.47;31.12;;;;;;;13.83;59.94;100010.66;4450218;32;36072;-85
2022/11/10 00:09:05;;;;;;;90.40;32.97;;;;;;;13.63;59.92;100020.22;4453790;32;20108;-86
2022/11/10 00:11:31;;;;;;;99.32;34.25;;;;;;;13.72;59.93;100019.84;4437834;32;20433;-86
2022/11/10 00:16:59;;;;;;;90.78;32.53;;;;;;;13.48;59.91;100013.81;4371563;32;20447;-86
2022/11/10 00:19:27;;;;;;;99.78;33.47;;;;;;;13.66;59.92;100017.47;4415060;32;20109;-85
2022/11/10 00:21:53;;;;;;;85.65;31.75;;;;;;;13.70;59.93;100025.12;4413125;32;20681;-86
2022/11/10 00:24:19;;;;;;;100.25;33.63;;;;;;;13.62;59.92;100027.22;4413777;32;20090;-86
2022/11/10 00:26:44;;;;;;;92.78;33.40;;;;;;;13.52;59.93;100028.50;4424033;32;20417;-86
2022/11/10 00:29:09;;;;;;;94.03;33.58;;;;;;;13.51;59.92;100021.59;4436343;32;31305;-85
2022/11/10 00:31:38;;;;;;;99.65;34.50;;;;;;;13.52;59.92;100023.28;4410479;32;22860;-86
2022/11/10 00:34:04;;;;;;;106.70;33.50;;;;;;;13.56;59.92;100035.31;4424756;32;20093;-85
2022/11/10 00:36:29;;;;;;;90.60;32.97;;;;;;;13.51;59.92;100029.44;4426601;32;20096;-85
2022/11/10 00:38:55;;;;;;;101.60;33.67;;;;;;;13.44;59.92;100027.94;4436246;32;24031;-86
2022/11/10 00:41:20;;;;;;;92.57;32.08;;;;;;;13.54;59.92;100034.53;4424048;32;20484;-85
2022/11/10 00:43:46;;;;;;;97.12;33.72;;;;;;;13.49;59.92;100034.72;4423926;32;20096;-86
2022/11/10 00:46:11;;;;;;;85.22;31.45;;;;;;;13.48;59.91;100024.28;4425733;32;20096;-85
2022/11/10 00:48:36;;;;;;;96.20;31.08;;;;;;;13.68;59.93;100026.97;4426053;32;20108;-86
2022/11/10 00:51:02;;;;;;;87.18;32.75;;;;;;;13.67;59.93;100029.66;4426027;32;20179;-86
2022/11/10 00:53:27;;;;;;;99.32;33.88;;;;;;;13.65;59.92;100026.25;4423951;32;20500;-85
2022/11/10 00:55:52;;;;;;;87.82;32.85;;;;;;;13.51;59.92;100026.81;4423237;32;20184;-86
2022/11/10 00:58:18;;;;;;;102.85;35.17;;;;;;;13.44;59.92;100023.56;4435534;32;35077;-86
2022/11/10 01:00:43;;;;;;;86.35;32.15;;;;;;;13.49;59.92;100026.03;4410603;32;20150;-88
2022/11/10 01:03:15;;;;;;;89.43;34.60;;;;;;;13.45;59.92;100019.19;4425535;32;20082;-88
2022/11/10 01:05:41;;;;;;;84.45;30.73;;;;;;;13.66;59.93;100018.34;4413752;32;20413;-87
2022/11/10 01:08:06;;;;;;;93.97;32.08;;;;;;;13.63;59.92;100021.06;4412766;32;20124;-88
2022/11/10 01:10:32;;;;;;;93.65;33.33;;;;;;;13.44;59.92;100018.34;4412871;32;20173;-88
2022/11/10 01:12:57;;;;;;;90.80;32.38;;;;;;;13.52;59.92;100018.03;4412459;32;31540;-88
2022/11/10 01:15:23;;;;;;;88.25;32.63;;;;;;;13.62;59.92;100021.13;4425648;32;20144;-88
2022/11/10 01:17:48;;;;;;;87.43;33.00;;;;;;;13.49;59.93;100024.25;4413123;32;20089;-88
2022/11/10 01:20:14;;;;;;;87.40;31.67;;;;;;;13.52;59.93;100016.28;4412991;32;20135;-88
2022/11/10 01:22:39;;;;;;;93.55;32.13;;;;;;;13.55;59.92;100020.53;4423238;32;20085;-88
2022/11/10 01:25:05;;;;;;;93.05;34.15;;;;;;;13.70;59.93;100019.06;4436879;32;20184;-88
2022/11/10 01:27:31;;;;;;;96.47;33.13;;;;;;;13.56;59.92;100022.25;4425881;32;20138;-88
2022/11/10 01:29:56;;;;;;;89.32;32.75;;;;;;;13.50;59.92;100022.50;4412563;32;20410;-87
2022/11/10 01:32:21;;;;;;;86.32;32.45;;;;;;;13.56;59.92;100018.78;4422963;32;20109;-88
2022/11/10 01:34:47;;;;;;;93.00;32.78;;;;;;;13.70;59.93;100024.28;4425446;32;20097;-89
2022/11/10 01:37:12;;;;;;;100.03;32.63;;;;;;;13.83;59.94;100022.88;4412933;32;20448;-88
2022/11/10 01:39:38;;;;;;;100.43;31.45;;;;;;;13.80;59.94;100028.25;4421925;32;21254;-89
2022/11/10 01:42:03;;;;;;;83.03;30.12;;;;;;;13.67;59.93;100029.66;4419960;32;20175;-89
2022/11/10 01:44:28;;;;;;;91.72;29.73;;;;;;;13.64;59.92;100029.78;4413958;32;20385;-88
2022/11/10 01:46:54;;;;;;;78.22;29.52;;;;;;;13.81;59.94;100028.19;4430065;32;21990;-88
2022/11/10 01:49:22;;;;;;;89.60;30.77;;;;;;;13.65;59.92;100023.63;4442006;32;20116;-89
2022/11/10 01:51:57;;;;;;;90.57;30.92;;;;;;;13.71;59.93;100026.00;4430330;32;20061;-88
2022/11/10 01:54:25;;;;;;;80.43;29.02;;;;;;;13.72;59.92;100028.56;4437901;32;20069;-88
2022/11/10 01:56:51;;;;;;;80.68;29.08;;;;;;;13.80;59.94;100031.72;4419860;32;20132;-88
2022/11/10 01:59:19;;;;;;;85.97;28.05;;;;;;;13.97;59.95;100025.81;4417088;32;20089;-89
2022/11/10 02:01:47;;;;;;;83.53;28.85;;;;;;;13.95;59.94;100029.38;4413708;32;20506;-89
2022/11/10 02:04:15;;;;;;;78.65;26.85;;;;;;;13.94;59.94;100030.28;4412934;32;20080;-88
2022/11/10 02:06:41;;;;;;;69.00;24.77;;;;;;;13.69;59.93;100035.66;4412705;32;20539;-88
2022/11/10 02:09:07;;;;;;;76.03;23.83;;;;;;;13.78;59.93;100035.31;4412754;32;20268;-89
2022/11/10 02:11:32;;;;;;;77.28;25.25;;;;;;;13.99;59.95;100036.19;4424953;32;20161;-88
2022/11/10 02:13:58;;;;;;;84.10;25.85;;;;;;;13.75;59.93;100040.66;4424773;32;20096;-88
2022/11/10 02:16:23;;;;;;;78.03;25.35;;;;;;;14.00;59.94;100040.53;4424726;32;21425;-89
2022/11/10 02:18:48;;;;;;;79.60;25.92;;;;;;;13.87;59.93;100037.53;4415241;32;27274;-90
2022/11/10 02:21:18;;;;;;;77.10;26.20;;;;;;;13.74;59.93;100045.06;4413752;32;24050;-89
2022/11/10 02:23:50;;;;;;;74.60;25.05;;;;;;;13.60;59.93;100043.87;4427875;32;20123;-88
2022/11/10 02:26:24;;;;;;;71.60;23.60;;;;;;;13.47;59.92;100046.97;4437553;32;20101;-89
2022/11/10 02:28:49;;;;;;;79.10;25.73;;;;;;;13.44;59.92;100051.47;4415548;32;20136;-89
2022/11/10 02:31:15;;;;;;;84.03;25.42;;;;;;;13.55;59.92;100044.06;4427500;32;20192;-89
2022/11/10 02:33:40;;;;;;;81.07;26.30;;;;;;;13.26;59.90;100060.06;4427291;32;20564;-89
2022/11/10 02:36:06;;;;;;;80.80;25.08;;;;;;;13.46;59.92;100052.25;4412296;32;20128;-89
2022/11/10 02:38:31;;;;;;;71.97;25.45;;;;;;;13.34;59.92;100057.97;4417199;32;20128;-89
2022/11/10 02:40:57;;;;;;;70.10;26.05;;;;;;;13.30;59.91;100051.19;4413146;32;20129;-87
2022/11/10 02:43:22;;;;;;;69.43;22.60;;;;;;;13.27;59.91;100057.37;4414549;32;20136;-88
2022/11/10 02:45:48;;;;;;;81.07;24.95;;;;;;;13.19;59.90;100062.03;4407044;32;27102;-88
2022/11/10 02:48:13;;;;;;;79.78;24.92;;;;;;;13.17;59.90;100062.09;4439091;32;25921;-88
2022/11/10 02:50:39;;;;;;;76.85;24.40;;;;;;;13.27;59.90;100061.75;4439010;32;20157;-86
2022/11/10 02:53:04;;;;;;;68.05;22.30;;;;;;;13.37;59.91;100063.09;4413927;32;26303;-87
2022/11/10 02:55:30;;;;;;;60.90;23.65;;;;;;;13.42;59.92;100066.38;4427189;32;20389;-87
2022/11/10 02:57:55;;;;;;;75.62;23.15;;;;;;;13.37;59.91;100066.56;4413959;32;23458;-87
2022/11/10 03:00:21;;;;;;;72.57;23.33;;;;;;;13.40;59.91;100068.19;4413961;32;26157;-87
2022/11/10 03:02:46;;;;;;;83.15;24.80;;;;;;;13.70;59.93;100074.84;4424097;32;27668;-88
2022/11/10 03:05:12;;;;;;;72.50;23.73;;;;;;;13.59;59.93;100077.03;4436682;32;22383;-88
2022/11/10 03:07:37;;;;;;;68.55;23.73;;;;;;;13.59;59.93;100084.03;4427340;32;20486;-87
2022/11/10 03:10:05;;;;;;;77.00;26.08;;;;;;;13.43;59.92;100087.22;4426428;32;31210;-87
2022/11/10 03:12:30;;;;;;;88.82;27.17;;;;;;;13.29;59.91;100088.69;4424303;32;20448;-86
2022/11/10 03:14:55;;;;;;;77.60;24.40;;;;;;;13.41;59.91;100096.06;4448099;32;23774;-86
2022/11/10 03:17:21;;;;;;;86.50;26.10;;;;;;;13.29;59.91;100099.16;4424009;32;20155;-85
2022/11/10 03:19:46;;;;;;;100.68;26.65;;;;;;;13.57;59.92;100097.19;4414274;32;20135;-86
2022/11/10 03:22:12;;;;;;;89.18;27.67;;;;;;;13.64;59.92;100093.41;4428234;32;20131;-85
2022/11/10 03:24:37;;;;;;;88.15;27.90;;;;;;;13.45;59.92;100085.41;4427525;32;32500;-85
2022/11/10 03:27:02;;;;;;;85.55;27.08;;;;;;;13.55;59.92;100098.16;4427388;32;37544;-86
2022/11/10 03:29:28;;;;;;;92.78;26.23;;;;;;;13.54;59.92;100096.44;4415229;32;22937;-87
2022/11/10 03:31:53;;;;;;;94.05;26.27;;;;;;;13.59;59.93;100094.50;4415091;32;20115;-87
2022/11/10 03:34:18;;;;;;;85.25;26.75;;;;;;;13.64;59.92;100097.78;4441163;32;20128;-87
2022/11/10 03:36:44;;;;;;;69.93;24.02;;;;;;;13.33;59.91;100098.13;4440532;32;21294;-87
2022/11/10 03:39:09;;;;;;;80.05;25.65;;;;;;;13.35;59.91;100094.53;4427557;32;30021;-87
2022/11/10 03:41:35;;;;;;;73.82;23.42;;;;;;;13.33;59.91;100103.34;4454915;32;20089;-86
2022/11/10 03:44:00;;;;;;;81.47;23.52;;;;;;;13.53;59.92;100108.69;4426981;32;37355;-87
2022/11/10 03:46:25;;;;;;;73.35;24.48;;;;;;;13.39;59.91;100110.94;4415384;32;20452;-89
2022/11/10 03:48:51;;;;;;;69.45;24.17;;;;;;;13.21;59.90;100110.72;4427908;32;20192;-89
2022/11/10 03:51:16;;;;;;;76.30;23.52;;;;;;;13.34;59.90;100115.50;4440201;32;30952;-89
2022/11/10 03:53:42;;;;;;;61.13;21.48;;;;;;;13.23;59.90;100115.88;4427740;32;20504;-88
2022/11/10 03:56:07;;;;;;;71.87;22.33;;;;;;;13.29;59.91;100109.59;4428215;32;28686;-89
2022/11/10 03:58:32;;;;;;;71.28;23.05;;;;;;;13.21;59.90;100115.09;4440457;32;23896;-89
2022/11/10 04:00:58;;;;;;;76.43;22.85;;;;;;;13.19;59.91;100117.75;4414834;32;25397;-89
2022/11/10 04:03:23;;;;;;;70.25;23.42;;;;;;;12.97;59.90;100119.41;4414324;32;39578;-90
2022/11/10 04:15:40;;;;;;;66.37;24.10;;;;;;;13.01;59.90;100128.00;4432254;32;20112;-91
2022/11/10 04:16:46;;;;;;;68.90;22.95;;;;;;;12.93;59.89;100137.88;4442787;32;20393;-88
2022/11/10 04:19:11;;;;;;;60.38;22.85;;;;;;;12.91;59.89;100143.16;4440520;32;20089;-88
2022/11/10 04:21:36;;;;;;;63.65;21.55;;;;;;;13.07;59.90;100140.88;4440168;32;35767;-88
2022/11/10 04:24:02;;;;;;;77.05;24.83;;;;;;;12.92;59.89;100147.47;4427407;32;34719;-90
2022/11/10 04:26:27;;;;;;;67.22;23.35;;;;;;;12.93;59.89;100143.94;4415279;32;20158;-90
2022/11/10 04:28:55;;;;;;;65.30;22.55;;;;;;;13.15;59.90;100138.81;4440676;32;20131;-90
2022/11/10 04:31:21;;;;;;;62.83;22.45;;;;;;;13.05;59.90;100147.91;4428795;32;20084;-91
2022/11/10 04:33:47;;;;;;;69.62;24.15;;;;;;;12.85;59.88;100138.16;4428327;32;20126;-90
2022/11/10 04:36:14;;;;;;;66.97;23.87;;;;;;;12.93;59.89;100143.94;4442287;32;20105;-90
2022/11/10 04:38:39;;;;;;;65.18;22.85;;;;;;;12.96;59.88;100140.38;4421676;32;20076;-91
2022/11/10 04:41:05;;;;;;;60.67;22.95;;;;;;;12.95;59.89;100142.13;4443808;32;20105;-91
2022/11/10 04:43:30;;;;;;;66.10;22.52;;;;;;;13.09;59.89;100137.28;4436491;32;20113;-90
2022/11/10 04:45:56;;;;;;;56.78;22.33;;;;;;;12.92;59.89;100152.69;4418447;32;20157;-88
2022/11/10 04:48:21;;;;;;;64.50;22.37;;;;;;;12.95;59.89;100146.50;4441069;32;20477;-88
2022/11/10 04:50:47;;;;;;;55.63;20.77;;;;;;;13.16;59.90;100148.34;4427856;32;20103;-88
2022/11/10 04:53:12;;;;;;;59.65;21.42;;;;;;;12.92;59.89;100150.09;4440431;32;20119;-90
2022/11/10 04:55:39;;;;;;;62.13;21.37;;;;;;;13.11;59.89;100155.53;4426894;32;27338;-89
2022/11/10 04:58:04;;;;;;;70.62;23.02;;;;;;;13.08;59.89;100159.09;4440774;32;20112;-88
2022/11/10 05:00:30;;;;;;;59.63;22.55;;;;;;;12.89;59.88;100171.09;4439492;32;31038;-89
2022/11/10 05:02:58;;;;;;;63.33;21.15;;;;;;;12.98;59.89;100170.78;4427402;32;20153;-88
2022/11/10 05:05:23;;;;;;;60.35;21.33;;;;;;;12.98;59.89;100178.59;4414752;32;20104;-88
2022/11/10 05:07:49;;;;;;;68.87;22.15;;;;;;;13.09;59.89;100179.09;4426884;32;27831;-89
2022/11/10 05:10:14;;;;;;;62.67;21.05;;;;;;;12.88;59.88;100178.09;4413755;32;32285;-89
2022/11/10 05:12:39;;;;;;;60.95;21.58;;;;;;;12.83;59.88;100184.38;4414181;32;20903;-89
2022/11/10 05:15:05;;;;;;;61.78;20.90;;;;;;;13.04;59.90;100183.66;4413831;32;34872;-88
2022/11/10 05:17:31;;;;;;;65.57;21.20;;;;;;;13.16;59.90;100180.59;4424478;32;20102;-88
2022/11/10 05:19:56;;;;;;;60.38;21.60;;;;;;;13.29;59.91;100185.41;4424254;32;27242;-88
2022/11/10 05:22:21;;;;;;;63.28;20.95;;;;;;;12.90;59.89;100188.50;4438116;32;24374;-89
2022/11/10 05:24:47;;;;;;;60.17;20.98;;;;;;;12.85;59.88;100195.63;4411504;32;22598;-88
2022/11/10 05:27:12;;;;;;;57.97;21.02;;;;;;;12.96;59.88;100198.72;4411213;32;34839;-88
2022/11/10 05:29:37;;;;;;;56.95;21.10;;;;;;;13.03;59.89;100192.41;4398424;32;37431;-89
2022/11/10 05:32:03;;;;;;;53.15;20.65;;;;;;;13.10;59.89;100195.63;4411727;32;20478;-88
2022/11/10 05:34:28;;;;;;;63.45;23.40;;;;;;;13.08;59.90;100202.69;4411836;32;20355;-90
2022/11/10 05:36:54;;;;;;;57.75;19.90;;;;;;;13.11;59.89;100197.34;4423693;32;28266;-90
2022/11/10 05:39:19;;;;;;;64.43;22.52;;;;;;;13.08;59.90;100202.69;4411701;32;20116;-91
2022/11/10 05:41:45;;;;;;;62.17;20.77;;;;;;;12.93;59.89;100205.81;4411548;32;20149;-91
2022/11/10 05:44:10;;;;;;;62.85;20.20;;;;;;;13.26;59.90;100209.91;4411452;32;29792;-89
2022/11/10 05:46:35;;;;;;;58.38;21.02;;;;;;;12.87;59.89;100215.56;4412433;32;20422;-91
2022/11/10 05:49:01;;;;;;;58.50;20.83;;;;;;;13.02;59.89;100223.81;4398340;32;28586;-91
2022/11/10 05:51:27;;;;;;;61.80;21.95;;;;;;;13.02;59.89;100229.03;4424635;32;20137;-91
2022/11/10 05:53:52;;;;;;;58.20;20.88;;;;;;;13.18;59.90;100231.06;4399861;32;20135;-91
2022/11/10 05:56:18;;;;;;;66.53;22.00;;;;;;;13.12;59.90;100233.87;4413160;32;20089;-90
2022/11/10 05:58:43;;;;;;;62.58;21.42;;;;;;;13.12;59.90;100236.50;4400450;32;25699;-91
2022/11/10 06:01:08;;;;;;;58.67;21.45;;;;;;;13.10;59.89;100245.28;4413199;32;20458;-91
2022/11/10 06:03:34;;;;;;;57.55;21.50;;;;;;;13.21;59.90;100243.19;4400078;32;28253;-91
2022/11/10 06:05:59;;;;;;;58.95;22.45;;;;;;;13.11;59.89;100245.25;4400266;32;24255;-90
2022/11/10 06:08:24;;;;;;;73.60;22.87;;;;;;;13.16;59.90;100248.53;4400759;32;20180;-91
2022/11/10 06:10:50;;;;;;;61.33;20.50;;;;;;;12.92;59.89;100257.22;4400142;32;24521;-90
2022/11/10 06:13:15;;;;;;;65.03;24.10;;;;;;;12.90;59.89;100259.88;4413281;32;20121;-91
2022/11/10 06:15:41;;;;;;;59.63;20.52;;;;;;;13.06;59.90;100262.84;4400264;32;20838;-91
2022/11/10 06:18:06;;;;;;;72.37;23.27;;;;;;;13.07;59.90;100266.31;4411190;32;21562;-91
2022/11/10 06:20:31;;;;;;;60.42;22.15;;;;;;;13.15;59.90;100275.59;4413467;32;20113;-91
2022/11/10 06:23:05;;;;;;;72.30;24.83;;;;;;;13.00;59.89;100278.72;4400692;32;20133;-91
2022/11/10 06:25:31;;;;;;;63.42;22.50;;;;;;;13.02;59.89;100282.16;4400619;32;20161;-90
2022/11/10 06:27:57;;;;;;;65.45;24.25;;;;;;;13.18;59.90;100287.72;4413282;32;20085;-91
2022/11/10 06:30:22;;;;;;;61.92;22.30;;;;;;;12.99;59.89;100289.22;4425928;32;20128;-91
2022/11/10 06:32:48;;;;;;;63.83;22.35;;;;;;;13.06;59.90;100294.22;4400479;32;20127;-92
2022/11/10 06:35:13;;;;;;;64.78;22.92;;;;;;;13.16;59.90;100295.59;4400395;32;20166;-91
2022/11/10 06:37:38;;;;;;;70.18;21.80;;;;;;;13.05;59.90;100296.88;4400635;32;20109;-91
2022/11/10 06:40:06;;;;;;;69.10;23.40;;;;;;;13.03;59.89;100299.53;4413140;32;20121;-91
2022/11/10 06:42:31;;;;;;;69.37;25.00;;;;;;;13.18;59.90;100298.19;4413397;32;20135;-91
2022/11/10 06:44:56;;;;;;;65.72;24.12;;;;;;;13.03;59.89;100309.16;4400491;32;20141;-90
2022/11/10 06:47:22;;;;;;;69.15;22.13;;;;;;;13.08;59.90;100308.06;4413266;32;20178;-91
2022/11/10 06:49:47;;;;;;;66.43;21.42;;;;;;;13.29;59.91;100317.00;4413059;32;20501;-91
2022/11/10 06:52:12;;;;;;;63.45;21.12;;;;;;;13.23;59.90;100321.56;4412712;32;30132;-91
2022/11/10 06:54:38;;;;;;;67.37;22.05;;;;;;;13.11;59.89;100328.87;4425754;32;20129;-91
2022/11/10 06:57:03;;;;;;;63.30;21.73;;;;;;;13.17;59.90;100336.53;4400005;32;30630;-91
2022/11/10 06:59:29;;;;;;;54.63;21.40;;;;;;;13.13;59.90;100341.91;4400213;32;20148;-91
2022/11/10 07:01:54;;;;;;;58.08;22.55;;;;;;;13.23;59.90;100342.47;4399809;32;33159;-91
2022/11/10 07:04:20;;;;;;;58.28;21.27;;;;;;;13.25;59.90;100341.53;4413342;32;20154;-91
2022/11/10 07:06:46;;;;;;;50.05;21.08;;;;;;;13.18;59.90;100340.88;4399860;32;20134;-90
2022/11/10 07:09:12;;;;;;;59.92;21.65;;;;;;;13.25;59.91;100340.66;4413438;32;20113;-91
2022/11/10 07:11:37;;;;;;;62.47;23.67;;;;;;;13.19;59.90;100352.19;4400601;32;20493;-91
2022/11/10 07:14:02;;;;;;;60.55;22.83;;;;;;;13.20;59.91;100353.88;4413005;32;20137;-92
2022/11/10 07:16:28;;;;;;;63.08;23.62;;;;;;;13.25;59.90;100357.22;4413899;32;20457;-91
2022/11/10 07:18:53;;;;;;;74.37;24.37;;;;;;;13.09;59.89;100358.59;4412997;32;20502;-91
2022/11/10 07:21:18;;;;;;;63.78;22.25;;;;;;;13.21;59.90;100363.44;4426568;32;20132;-91
2022/11/10 07:23:45;;;;;;;59.90;22.85;;;;;;;13.20;59.91;100359.97;4413566;32;35475;-91
2022/11/10 07:26:11;;;;;;;65.43;23.20;;;;;;;13.14;59.90;100360.13;4428084;32;20053;-91
2022/11/10 07:28:36;;;;;;;56.97;21.98;;;;;;;13.09;59.89;100363.81;4439669;32;20116;-91
2022/11/10 07:31:02;;;;;;;61.85;21.98;;;;;;;13.06;59.90;100367.38;4454579;32;20115;-91
2022/11/10 07:33:27;;;;;;;58.97;20.95;;;;;;;13.19;59.91;100363.47;4433045;32;20128;-91
2022/11/10 07:35:55;;;;;;;62.50;22.05;;;;;;;13.23;59.91;100374.69;4415676;32;20109;-91
2022/11/10 07:38:20;;;;;;;62.62;23.73;;;;;;;13.31;59.91;100374.47;4413027;32;20127;-91
2022/11/10 07:40:51;;;;;;;61.67;23.73;;;;;;;13.46;59.92;100368.69;4413173;32;20457;-91
2022/11/10 07:43:20;;;;;;;60.38;22.83;;;;;;;13.51;59.92;100378.12;4412919;32;20086;-91
2022/11/10 07:45:46;;;;;;;53.40;20.45;;;;;;;13.57;59.92;100389.28;4425617;32;20441;-91
2022/11/10 07:48:11;;;;;;;61.75;22.77;;;;;;;13.52;59.92;100387.66;4425759;32;20127;-91
2022/11/10 07:50:36;;;;;;;57.28;23.10;;;;;;;13.62;59.93;100389.97;4412185;32;26814;-91
2022/11/10 07:53:03;;;;;;;55.35;21.60;;;;;;;13.73;59.93;100391.31;4412731;32;20384;-91
2022/11/10 07:55:29;;;;;;;65.50;21.48;;;;;;;13.73;59.93;100390.47;4412820;32;20094;-91
2022/11/10 07:57:57;;;;;;;59.03;24.60;;;;;;;13.51;59.92;100387.72;4412223;32;24099;-91
2022/11/10 08:00:23;;;;;;;59.50;22.13;;;;;;;13.51;59.92;100391.19;4412954;32;20105;-91
2022/11/10 08:02:49;;;;;;;57.05;22.17;;;;;;;13.40;59.91;100392.44;4412872;32;20133;-91
2022/11/10 08:05:15;;;;;;;60.45;24.05;;;;;;;13.40;59.91;100395.06;4413418;32;20089;-91
2022/11/10 08:07:40;;;;;;;55.85;21.85;;;;;;;13.47;59.91;100401.78;4413085;32;20461;-91
2022/11/10 08:10:06;;;;;;;58.58;22.95;;;;;;;13.48;59.91;100400.88;4412604;32;20136;-91
2022/11/10 08:12:31;;;;;;;57.38;21.83;;;;;;;13.44;59.91;100404.50;4412619;32;20450;-91
2022/11/10 08:14:57;;;;;;;57.08;21.30;;;;;;;13.42;59.92;100412.41;4425692;32;25375;-90
2022/11/10 08:17:22;;;;;;;58.65;21.62;;;;;;;13.48;59.91;100416.56;4425657;32;23524;-91
2022/11/10 08:19:49;;;;;;;52.97;20.73;;;;;;;13.49;59.92;100423.53;4425141;32;28674;-91
2022/11/10 08:22:14;;;;;;;56.47;21.87;;;;;;;13.56;59.92;100425.03;4425607;32;20081;-91
2022/11/10 08:24:39;;;;;;;53.42;22.73;;;;;;;13.68;59.93;100424.59;4413431;32;20411;-91
2022/11/10 08:27:05;;;;;;;50.95;19.70;;;;;;;13.56;59.92;100414.56;4413329;32;20113;-91
2022/11/10 08:29:30;;;;;;;46.08;19.58;;;;;;;13.67;59.93;100422.91;4424890;32;27689;-91
2022/11/10 08:31:56;;;;;;;54.67;21.40;;;;;;;13.65;59.92;100419.47;4412644;32;20437;-90
2022/11/10 08:34:21;;;;;;;50.03;18.00;;;;;;;13.68;59.93;100424.59;4437717;32;21720;-91
2022/11/10 08:36:47;;;;;;;48.28;19.77;;;;;;;13.64;59.92;100425.62;4425370;32;20132;-91
2022/11/10 08:39:13;;;;;;;42.20;18.27;;;;;;;13.45;59.92;100430.59;4412786;32;20100;-90
2022/11/10 08:41:38;;;;;;;44.03;19.15;;;;;;;13.49;59.92;100434.00;4438146;32;20132;-91
2022/11/10 08:44:04;;;;;;;49.88;18.33;;;;;;;13.57;59.92;100442.44;4412534;32;20147;-91
2022/11/10 08:46:29;;;;;;;37.35;16.70;;;;;;;13.75;59.93;100447.06;4425522;32;20381;-91
2022/11/10 08:48:54;;;;;;;44.50;18.48;;;;;;;13.86;59.94;100457.16;4425324;32;20442;-91
2022/11/10 08:51:21;;;;;;;40.75;17.33;;;;;;;13.94;59.94;100460.34;4424739;32;25167;-91
2022/11/10 08:53:46;;;;;;;47.13;17.70;;;;;;;13.87;59.93;100466.72;4425069;32;20548;-91
2022/11/10 08:56:11;;;;;;;42.03;17.10;;;;;;;13.83;59.94;100473.81;4424965;32;20113;-91
2022/11/10 08:58:37;;;;;;;42.10;17.95;;;;;;;14.02;59.95;100483.66;4424763;32;20473;-91
2022/11/10 09:01:07;;;;;;;42.75;18.30;;;;;;;14.07;59.95;100487.81;4424502;32;30333;-91
2022/11/10 09:03:33;;;;;;;38.85;16.30;;;;;;;14.10;59.96;100481.63;4425230;32;20112;-91
2022/11/10 09:05:58;;;;;;;43.38;16.55;;;;;;;14.16;59.96;100478.78;4411664;32;28590;-91
2022/11/10 09:08:23;;;;;;;46.17;17.75;;;;;;;14.07;59.95;100479.97;4424349;32;33547;-91
2022/11/10 09:10:50;;;;;;;36.70;16.40;;;;;;;14.28;59.96;100474.91;4411722;32;26191;-91
2022/11/10 09:13:15;;;;;;;36.92;16.12;;;;;;;14.52;59.97;100481.03;4412157;32;20086;-91
2022/11/10 09:15:41;;;;;;;36.63;16.80;;;;;;;14.55;59.97;100489.66;4425038;32;20124;-91
2022/11/10 09:18:07;;;;;;;39.28;17.00;;;;;;;14.51;59.98;100495.06;4412107;32;20405;-91
2022/11/10 09:20:33;;;;;;;39.03;17.48;;;;;;;14.40;59.96;100496.25;4424662;32;20089;-91
2022/11/10 09:23:06;;;;;;;38.28;16.73;;;;;;;14.20;59.96;100501.37;4437735;32;20434;-92
2022/11/10 09:25:32;;;;;;;39.05;18.33;;;;;;;14.31;59.96;100503.59;4412013;32;20108;-91
2022/11/10 09:27:57;;;;;;;39.90;17.20;;;;;;;14.33;59.96;100499.16;4412122;32;20166;-91
2022/11/10 09:30:24;;;;;;;45.40;17.52;;;;;;;14.47;59.97;100498.69;4424853;32;29055;-91
2022/11/10 09:32:56;;;;;;;41.17;18.37;;;;;;;14.28;59.96;100498.47;4413898;32;20155;-90
2022/11/10 09:35:21;;;;;;;42.00;18.85;;;;;;;13.98;59.94;100501.25;4426726;32;20117;-91
2022/11/10 09:37:47;;;;;;;46.37;19.42;;;;;;;14.00;59.94;100504.66;4426587;32;20081;-91
2022/11/10 09:40:18;;;;;;;42.03;19.02;;;;;;;13.89;59.94;100512.00;4413219;32;26248;-91
2022/11/10 09:42:43;;;;;;;41.55;18.52;;;;;;;14.05;59.95;100510.59;4426615;32;20490;-91
2022/11/10 09:45:14;;;;;;;40.55;17.65;;;;;;;14.12;59.96;100506.00;4413742;32;20124;-91
2022/11/10 09:47:44;;;;;;;41.03;18.35;;;;;;;13.93;59.94;100507.50;4426623;32;20127;-91
2022/11/10 09:50:14;;;;;;;41.70;17.40;;;;;;;13.93;59.94;100518.84;4426512;32;20139;-91
2022/11/10 09:52:39;;;;;;;40.88;18.70;;;;;;;13.77;59.93;100525.50;4426528;32;20146;-91
2022/11/10 09:55:29;;;;;;;41.83;19.25;;;;;;;13.79;59.93;100523.69;4426386;32;20153;-91
2022/11/10 09:57:55;;;;;;;;;;;;;;;13.91;59.95;100527.66;4414056;32;20173;-91
2022/11/10 10:00:20;;;;;;;45.25;19.85;;;;;;;13.91;59.94;100533.75;4413866;32;19996;-91
2022/11/10 10:03:05;;;;;;;51.13;21.17;;;;;;;13.90;59.95;100541.66;4439422;32;20098;-91
2022/11/10 10:05:54;;;;;;;50.25;20.55;;;;;;;14.19;59.96;100535.41;4439668;32;20109;-91
2022/11/10 10:08:47;;;;;;;55.30;21.87;;;;;;;14.16;59.95;100546.84;4427194;32;20139;-91
2022/11/10 10:11:34;;;;;;;60.12;24.42;;;;;;;14.23;59.96;100555.37;4428439;32;20163;-91
2022/11/10 10:14:03;;;;;;;55.40;23.25;;;;;;;14.36;59.96;100544.41;4454855;32;20125;-90
2022/11/10 10:17:02;;;;;;;62.62;22.37;;;;;;;14.30;59.96;100549.88;4445261;32;20073;-91
2022/11/10 10:19:49;;;;;;;53.87;22.48;;;;;;;14.22;59.96;100545.81;4443898;32;20117;-91
2022/11/10 10:22:43;;;;;;;58.17;22.70;;;;;;;14.31;59.96;100555.97;4456150;32;20154;-91
2022/11/10 10:25:13;;;;;;;48.67;20.02;;;;;;;14.34;59.97;100559.31;4441897;32;20088;-91
2022/11/10 10:27:38;;;;;;;53.28;21.12;;;;;;;14.33;59.96;100554.16;4416338;32;20101;-92
2022/11/10 10:30:22;;;;;;;54.38;22.92;;;;;;;14.40;59.96;100555.63;4415752;32;20218;-91
2022/11/10 10:32:47;;;;;;;52.75;21.45;;;;;;;14.49;59.98;100554.50;4428319;32;22490;-91
2022/11/10 10:35:16;;;;;;;53.63;22.35;;;;;;;14.65;59.98;100542.56;4416062;32;20153;-92
2022/11/10 10:37:49;;;;;;;55.30;22.90;;;;;;;14.80;59.99;100555.13;4416018;32;20139;-92
2022/11/10 10:40:17;;;;;;;53.53;22.55;;;;;;;14.73;59.99;100553.62;4416134;32;20485;-91
2022/11/10 10:42:42;;;;;;;47.13;20.95;;;;;;;14.85;59.99;100552.31;4441460;32;20096;-92
2022/11/10 10:45:11;;;;;;;46.03;21.35;;;;;;;14.92;60.00;100554.69;4428067;32;28936;-91
2022/11/10 10:47:37;;;;;;;47.88;20.23;;;;;;;15.15;60.00;100550.34;4441831;32;20105;-92
2022/11/10 10:50:22;;;;;;;42.78;19.42;;;;;;;15.20;60.01;100554.50;4428867;32;20131;-91
2022/11/10 10:53:07;;;;;;;45.08;20.12;;;;;;;15.11;60.01;100553.97;4441541;32;20084;-92
2022/11/10 10:55:33;;;;;;;49.45;21.45;;;;;;;15.21;60.01;100552.72;4428535;32;20109;-92
2022/11/10 10:58:32;;;;;;;51.22;21.40;;;;;;;14.97;60.00;100547.50;4428660;32;20104;-91
2022/11/10 11:01:20;;;;;;;48.40;20.40;;;;;;;15.11;60.01;100549.56;4418382;32;20475;-91
2022/11/10 11:03:48;;;;;;;49.15;20.02;;;;;;;15.24;60.01;100557.84;4417194;32;20120;-91
2022/11/10 11:06:14;;;;;;;43.00;20.52;;;;;;;15.52;60.02;100555.00;4416195;32;20121;-91
2022/11/10 11:08:55;;;;;;;45.47;19.17;;;;;;;15.30;60.01;100554.97;4455424;32;20469;-91
2022/11/10 11:11:26;;;;;;;47.67;19.15;;;;;;;15.30;60.01;100561.06;4429197;32;20120;-91
2022/11/10 11:13:52;;;;;;;51.37;20.67;;;;;;;15.26;60.01;100563.88;4416076;32;20389;-91
2022/11/10 11:16:17;;;;;;;42.22;18.87;;;;;;;15.23;60.01;100582.38;4428243;32;20104;-91
2022/11/10 11:18:43;;;;;;;44.80;18.15;;;;;;;15.55;60.04;100578.50;4414946;32;31162;-91
2022/11/10 11:21:14;;;;;;;49.92;17.92;;;;;;;15.79;60.05;100569.66;4415249;32;25600;-91